sensor_id;sensor_type;location;lat;lon;timestamp;pressure;altitude;pressure_sealevel;temperature;humidity
9129;BME280;4599;50.906;6.786;2023-07-28T00:02:53;99239.34;;;16.74;92.68
9129;BME280;4599;50.906;6.786;2023-07-28T00:06:54;99233.81;;;16.77;92.69
9129;BME280;4599;50.906;6.786;2023-07-28T00:10:56;99235.78;;;16.75;93.11
9129;BME280;4599;50.906;6.786;2023-07-28T00:14:59;99235.88;;;16.82;92.98
9129;BME280;4599;50.906;6.786;2023-07-28T00:19:01;99241.69;;;16.84;92.87
9129;BME280;4599;50.906;6.786;2023-07-28T00:23:03;99241.50;;;16.85;92.44
9129;BME280;4599;50.906;6.786;2023-07-28T00:27:05;99237.59;;;16.89;91.87
9129;BME280;4599;50.906;6.786;2023-07-28T00:31:08;99241.41;;;16.79;92.61
9129;BME280;4599;50.906;6.786;2023-07-28T00:35:10;99244.56;;;16.89;92.47
9129;BME280;4599;50.906;6.786;2023-07-28T00:39:12;99242.31;;;16.86;91.80
9129;BME280;4599;50.906;6.786;2023-07-28T00:43:14;99242.47;;;16.84;92.22
9129;BME280;4599;50.906;6.786;2023-07-28T00:47:17;99235.34;;;16.86;92.85
9129;BME280;4599;50.906;6.786;2023-07-28T00:51:18;99231.06;;;16.93;92.70
9129;BME280;4599;50.906;6.786;2023-07-28T00:55:21;99227.84;;;16.91;92.72
9129;BME280;4599;50.906;6.786;2023-07-28T00:59:23;99226.97;;;16.84;92.18
9129;BME280;4599;50.906;6.786;2023-07-28T01:03:27;99219.28;;;16.91;91.84
9129;BME280;4599;50.906;6.786;2023-07-28T01:07:37;99228.28;;;16.80;92.62
9129;BME280;4599;50.906;6.786;2023-07-28T01:11:52;99221.69;;;16.78;92.55
9129;BME280;4599;50.906;6.786;2023-07-28T01:15:54;99220.16;;;16.83;92.61
9129;BME280;4599;50.906;6.786;2023-07-28T01:19:58;99213.66;;;16.87;93.03
9129;BME280;4599;50.906;6.786;2023-07-28T01:24:06;99221.06;;;16.90;92.36
9129;BME280;4599;50.906;6.786;2023-07-28T01:28:13;99224.28;;;16.92;92.88
9129;BME280;4599;50.906;6.786;2023-07-28T01:32:15;99222.41;;;16.86;92.49
9129;BME280;4599;50.906;6.786;2023-07-28T01:36:17;99224.22;;;16.86;92.49
9129;BME280;4599;50.906;6.786;2023-07-28T01:40:20;99223.22;;;16.87;92.63
9129;BME280;4599;50.906;6.786;2023-07-28T01:44:23;99219.56;;;16.81;92.69
9129;BME280;4599;50.906;6.786;2023-07-28T01:48:25;99224.38;;;16.84;92.68
9129;BME280;4599;50.906;6.786;2023-07-28T01:52:27;99214.38;;;16.81;93.35
9129;BME280;4599;50.906;6.786;2023-07-28T01:56:29;99212.50;;;16.75;93.22
9129;BME280;4599;50.906;6.786;2023-07-28T02:00:33;99220.97;;;16.84;93.03
9129;BME280;4599;50.906;6.786;2023-07-28T02:04:35;99216.44;;;16.86;93.80
9129;BME280;4599;50.906;6.786;2023-07-28T02:08:37;99213.41;;;16.82;93.46
9129;BME280;4599;50.906;6.786;2023-07-28T02:12:39;99215.44;;;16.87;93.55
9129;BME280;4599;50.906;6.786;2023-07-28T02:16:43;99219.28;;;16.91;93.20
9129;BME280;4599;50.906;6.786;2023-07-28T02:20:47;99212.31;;;16.91;93.46
9129;BME280;4599;50.906;6.786;2023-07-28T02:24:49;99216.97;;;16.81;93.73
9129;BME280;4599;50.906;6.786;2023-07-28T02:28:51;99224.66;;;16.89;93.15
9129;BME280;4599;50.906;6.786;2023-07-28T02:32:54;99223.84;;;16.89;93.54
9129;BME280;4599;50.906;6.786;2023-07-28T02:36:56;99214.03;;;16.84;93.38
9129;BME280;4599;50.906;6.786;2023-07-28T02:40:58;99219.19;;;16.84;92.92
9129;BME280;4599;50.906;6.786;2023-07-28T02:45:00;99224.28;;;16.78;94.10
9129;BME280;4599;50.906;6.786;2023-07-28T02:49:03;99224.09;;;16.79;93.85
9129;BME280;4599;50.906;6.786;2023-07-28T02:53:04;99231.75;;;16.73;93.76
9129;BME280;4599;50.906;6.786;2023-07-28T02:57:06;99229.63;;;16.76;93.93
9129;BME280;4599;50.906;6.786;2023-07-28T03:01:08;99238.38;;;16.75;94.08
9129;BME280;4599;50.906;6.786;2023-07-28T03:05:11;99231.22;;;16.77;93.84
9129;BME280;4599;50.906;6.786;2023-07-28T03:09:13;99246.25;;;16.82;94.07
9129;BME280;4599;50.906;6.786;2023-07-28T03:13:15;99230.88;;;16.80;93.78
9129;BME280;4599;50.906;6.786;2023-07-28T03:17:17;99230.53;;;16.83;93.50
9129;BME280;4599;50.906;6.786;2023-07-28T03:21:20;99240.69;;;16.85;93.90
9129;BME280;4599;50.906;6.786;2023-07-28T03:25:22;99235.34;;;16.86;94.10
9129;BME280;4599;50.906;6.786;2023-07-28T03:29:24;99238.03;;;16.78;94.32
9129;BME280;4599;50.906;6.786;2023-07-28T03:33:28;99241.06;;;16.82;93.69
9129;BME280;4599;50.906;6.786;2023-07-28T03:37:32;99241.06;;;16.82;94.10
9129;BME280;4599;50.906;6.786;2023-07-28T03:41:33;99247.50;;;16.86;93.97
9129;BME280;4599;50.906;6.786;2023-07-28T03:45:35;99252.94;;;16.91;93.17
9129;BME280;4599;50.906;6.786;2023-07-28T03:49:37;99250.34;;;16.91;93.77
9129;BME280;4599;50.906;6.786;2023-07-28T03:53:40;99242.84;;;16.81;93.90
9129;BME280;4599;50.906;6.786;2023-07-28T03:57:41;99246.03;;;16.83;94.04
9129;BME280;4599;50.906;6.786;2023-07-28T04:01:43;99241.50;;;16.85;94.04
9129;BME280;4599;50.906;6.786;2023-07-28T04:05:45;99240.34;;;16.88;94.03
9129;BME280;4599;50.906;6.786;2023-07-28T04:09:48;99253.13;;;16.89;94.22
9129;BME280;4599;50.906;6.786;2023-07-28T04:13:50;99246.50;;;17.02;94.00
9129;BME280;4599;50.906;6.786;2023-07-28T04:17:51;99242.22;;;17.09;93.60
9129;BME280;4599;50.906;6.786;2023-07-28T04:21:53;99242.13;;;17.02;93.88
9129;BME280;4599;50.906;6.786;2023-07-28T04:25:56;99253.56;;;17.08;93.66
9129;BME280;4599;50.906;6.786;2023-07-28T04:29:58;99254.13;;;17.03;94.36
9129;BME280;4599;50.906;6.786;2023-07-28T04:34:01;99249.28;;;17.15;93.86
9129;BME280;4599;50.906;6.786;2023-07-28T04:38:03;99250.19;;;17.07;94.37
9129;BME280;4599;50.906;6.786;2023-07-28T04:42:06;99262.94;;;17.09;94.43
9129;BME280;4599;50.906;6.786;2023-07-28T04:46:08;99266.94;;;17.11;94.02
9129;BME280;4599;50.906;6.786;2023-07-28T04:50:10;99266.06;;;17.19;93.83
9129;BME280;4599;50.906;6.786;2023-07-28T04:54:12;99267.69;;;17.20;93.47
9129;BME280;4599;50.906;6.786;2023-07-28T04:58:15;99271.00;;;17.28;93.50
9129;BME280;4599;50.906;6.786;2023-07-28T05:02:17;99271.25;;;17.33;93.73
9129;BME280;4599;50.906;6.786;2023-07-28T05:06:19;99274.47;;;17.35;93.48
9129;BME280;4599;50.906;6.786;2023-07-28T05:10:20;99272.22;;;17.32;93.11
9129;BME280;4599;50.906;6.786;2023-07-28T05:14:23;99278.31;;;17.25;93.53
9129;BME280;4599;50.906;6.786;2023-07-28T05:18:25;99283.84;;;17.36;93.27
9129;BME280;4599;50.906;6.786;2023-07-28T05:22:27;99290.47;;;17.39;93.22
9129;BME280;4599;50.906;6.786;2023-07-28T05:26:28;99285.00;;;17.34;93.26
9129;BME280;4599;50.906;6.786;2023-07-28T05:30:32;99294.19;;;17.51;92.57
9129;BME280;4599;50.906;6.786;2023-07-28T05:34:33;99295.53;;;17.47;93.12
9129;BME280;4599;50.906;6.786;2023-07-28T05:38:35;99290.72;;;17.44;93.11
9129;BME280;4599;50.906;6.786;2023-07-28T05:42:36;99307.91;;;17.60;92.83
9129;BME280;4599;50.906;6.786;2023-07-28T05:46:39;99306.38;;;17.65;93.00
9129;BME280;4599;50.906;6.786;2023-07-28T05:50:41;99306.28;;;17.73;92.53
9129;BME280;4599;50.906;6.786;2023-07-28T05:54:43;99315.22;;;17.71;92.31
9129;BME280;4599;50.906;6.786;2023-07-28T05:58:45;99318.50;;;17.65;93.14
9129;BME280;4599;50.906;6.786;2023-07-28T06:02:49;99321.63;;;17.75;93.30
9129;BME280;4599;50.906;6.786;2023-07-28T06:06:51;99321.75;;;17.67;92.78
9129;BME280;4599;50.906;6.786;2023-07-28T06:10:52;99323.00;;;17.71;93.37
9129;BME280;4599;50.906;6.786;2023-07-28T06:14:54;99329.59;;;17.73;92.94
9129;BME280;4599;50.906;6.786;2023-07-28T06:18:57;99335.22;;;17.77;92.52
9129;BME280;4599;50.906;6.786;2023-07-28T06:22:58;99335.69;;;17.66;92.46
9129;BME280;4599;50.906;6.786;2023-07-28T06:27:01;99333.00;;;17.74;92.88
9129;BME280;4599;50.906;6.786;2023-07-28T06:31:03;99343.88;;;17.84;93.00
9129;BME280;4599;50.906;6.786;2023-07-28T06:35:07;99347.72;;;17.88;92.91
9129;BME280;4599;50.906;6.786;2023-07-28T06:39:08;99355.31;;;17.89;92.36
9129;BME280;4599;50.906;6.786;2023-07-28T06:43:10;99353.44;;;17.83;91.82
9129;BME280;4599;50.906;6.786;2023-07-28T06:47:12;99355.22;;;17.83;92.84
9129;BME280;4599;50.906;6.786;2023-07-28T06:51:15;99361.81;;;17.85;92.49
9129;BME280;4599;50.906;6.786;2023-07-28T06:55:18;99365.94;;;17.95;92.31
9129;BME280;4599;50.906;6.786;2023-07-28T06:59:19;99365.84;;;18.03;92.35
9129;BME280;4599;50.906;6.786;2023-07-28T07:03:23;99368.88;;;18.21;92.22
9129;BME280;4599;50.906;6.786;2023-07-28T07:07:26;99381.34;;;18.32;91.43
9129;BME280;4599;50.906;6.786;2023-07-28T07:11:31;99380.66;;;18.23;91.63
9129;BME280;4599;50.906;6.786;2023-07-28T07:15:35;99377.69;;;18.26;91.91
9129;BME280;4599;50.906;6.786;2023-07-28T07:19:38;99386.06;;;18.43;91.49
9129;BME280;4599;50.906;6.786;2023-07-28T07:23:42;99385.16;;;18.51;91.14
9129;BME280;4599;50.906;6.786;2023-07-28T07:27:44;99381.66;;;18.58;91.16
9129;BME280;4599;50.906;6.786;2023-07-28T07:31:46;99391.59;;;18.55;90.93
9129;BME280;4599;50.906;6.786;2023-07-28T07:35:48;99400.09;;;18.63;89.86
9129;BME280;4599;50.906;6.786;2023-07-28T07:39:51;99394.09;;;18.63;90.02
9129;BME280;4599;50.906;6.786;2023-07-28T07:43:54;99396.19;;;18.74;89.97
9129;BME280;4599;50.906;6.786;2023-07-28T07:47:56;99400.97;;;18.92;89.86
9129;BME280;4599;50.906;6.786;2023-07-28T07:51:58;99400.56;;;19.16;88.56
9129;BME280;4599;50.906;6.786;2023-07-28T07:56:01;99407.09;;;19.95;86.96
9129;BME280;4599;50.906;6.786;2023-07-28T08:00:03;99410.97;;;20.66;83.41
9129;BME280;4599;50.906;6.786;2023-07-28T08:04:07;99392.16;;;21.63;81.49
9129;BME280;4599;50.906;6.786;2023-07-28T08:08:09;99412.53;;;22.50;76.85
9129;BME280;4599;50.906;6.786;2023-07-28T08:12:13;99414.50;;;22.16;76.30
9129;BME280;4599;50.906;6.786;2023-07-28T08:16:15;99413.47;;;21.47;78.68
9129;BME280;4599;50.906;6.786;2023-07-28T08:20:18;99428.09;;;21.28;79.88
9129;BME280;4599;50.906;6.786;2023-07-28T08:24:20;99430.66;;;21.02;79.31
9129;BME280;4599;50.906;6.786;2023-07-28T08:28:22;99430.09;;;21.13;79.15
9129;BME280;4599;50.906;6.786;2023-07-28T08:32:24;99434.25;;;21.73;78.24
9129;BME280;4599;50.906;6.786;2023-07-28T08:36:26;99435.44;;;22.03;76.01
9129;BME280;4599;50.906;6.786;2023-07-28T08:40:28;99430.34;;;22.66;75.81
9129;BME280;4599;50.906;6.786;2023-07-28T08:44:32;99429.97;;;23.50;72.18
9129;BME280;4599;50.906;6.786;2023-07-28T08:48:34;99420.78;;;25.21;64.01
9129;BME280;4599;50.906;6.786;2023-07-28T08:52:36;99429.56;;;25.61;61.84
9129;BME280;4599;50.906;6.786;2023-07-28T08:56:38;99433.22;;;26.92;58.05
9129;BME280;4599;50.906;6.786;2023-07-28T09:00:41;99433.22;;;28.18;53.71
9129;BME280;4599;50.906;6.786;2023-07-28T09:04:43;99436.59;;;28.62;53.51
9129;BME280;4599;50.906;6.786;2023-07-28T09:08:45;99439.59;;;28.71;50.89
9129;BME280;4599;50.906;6.786;2023-07-28T09:12:48;99440.16;;;26.98;55.23
9129;BME280;4599;50.906;6.786;2023-07-28T09:16:51;99438.13;;;25.92;58.19
9129;BME280;4599;50.906;6.786;2023-07-28T09:20:54;99444.06;;;26.39;60.04
9129;BME280;4599;50.906;6.786;2023-07-28T09:24:55;99438.72;;;26.62;53.11
9129;BME280;4599;50.906;6.786;2023-07-28T09:28:57;99436.66;;;27.26;55.41
9129;BME280;4599;50.906;6.786;2023-07-28T09:33:00;99445.84;;;26.78;53.41
9129;BME280;4599;50.906;6.786;2023-07-28T09:37:05;99440.47;;;27.18;51.18
9129;BME280;4599;50.906;6.786;2023-07-28T09:41:08;99441.25;;;26.17;54.38
9129;BME280;4599;50.906;6.786;2023-07-28T09:45:11;99445.09;;;25.63;56.81
9129;BME280;4599;50.906;6.786;2023-07-28T09:49:35;99447.41;;;24.65;59.23
9129;BME280;4599;50.906;6.786;2023-07-28T09:53:40;99446.59;;;23.80;63.80
9129;BME280;4599;50.906;6.786;2023-07-28T09:57:45;99449.78;;;23.82;66.34
9129;BME280;4599;50.906;6.786;2023-07-28T10:01:48;99454.00;;;24.01;63.40
9129;BME280;4599;50.906;6.786;2023-07-28T10:05:52;99452.84;;;24.63;63.04
9129;BME280;4599;50.906;6.786;2023-07-28T10:09:54;99455.44;;;25.35;60.96
9129;BME280;4599;50.906;6.786;2023-07-28T10:13:56;99450.56;;;25.61;60.97
9129;BME280;4599;50.906;6.786;2023-07-28T10:17:59;99460.09;;;25.21;60.53
9129;BME280;4599;50.906;6.786;2023-07-28T10:22:06;99454.06;;;26.02;59.54
9129;BME280;4599;50.906;6.786;2023-07-28T10:26:09;99454.63;;;25.22;60.37
9129;BME280;4599;50.906;6.786;2023-07-28T10:30:11;99462.78;;;24.07;62.88
9129;BME280;4599;50.906;6.786;2023-07-28T10:34:15;99446.47;;;24.59;62.06
9129;BME280;4599;50.906;6.786;2023-07-28T10:38:34;99458.78;;;26.96;53.89
9129;BME280;4599;50.906;6.786;2023-07-28T10:42:36;99476.50;;;26.44;56.42
9129;BME280;4599;50.906;6.786;2023-07-28T10:46:39;99470.63;;;25.91;57.55
9129;BME280;4599;50.906;6.786;2023-07-28T10:50:40;99471.91;;;25.77;58.61
9129;BME280;4599;50.906;6.786;2023-07-28T10:54:43;99466.31;;;25.96;57.48
9129;BME280;4599;50.906;6.786;2023-07-28T10:58:45;99471.22;;;25.58;57.46
9129;BME280;4599;50.906;6.786;2023-07-28T11:02:48;99469.34;;;25.23;60.99
9129;BME280;4599;50.906;6.786;2023-07-28T11:06:51;99480.84;;;24.81;63.56
9129;BME280;4599;50.906;6.786;2023-07-28T11:10:57;99479.09;;;24.93;62.67
9129;BME280;4599;50.906;6.786;2023-07-28T11:14:58;99475.38;;;24.83;63.70
9129;BME280;4599;50.906;6.786;2023-07-28T11:19:00;99475.25;;;24.30;64.59
9129;BME280;4599;50.906;6.786;2023-07-28T11:23:03;99476.03;;;23.94;63.26
9129;BME280;4599;50.906;6.786;2023-07-28T11:27:07;99478.47;;;23.46;63.40
9129;BME280;4599;50.906;6.786;2023-07-28T11:31:09;99470.06;;;23.44;65.22
9129;BME280;4599;50.906;6.786;2023-07-28T11:35:12;99479.44;;;23.76;64.85
9129;BME280;4599;50.906;6.786;2023-07-28T11:39:14;99470.63;;;25.44;61.64
9129;BME280;4599;50.906;6.786;2023-07-28T11:43:19;99457.13;;;27.07;54.25
9129;BME280;4599;50.906;6.786;2023-07-28T11:47:23;99466.53;;;27.03;52.93
9129;BME280;4599;50.906;6.786;2023-07-28T11:51:25;99451.16;;;26.66;53.20
9129;BME280;4599;50.906;6.786;2023-07-28T11:55:26;99449.09;;;27.47;51.35
9129;BME280;4599;50.906;6.786;2023-07-28T11:59:29;99454.50;;;27.24;51.90
9129;BME280;4599;50.906;6.786;2023-07-28T12:03:31;99456.19;;;27.46;50.92
9129;BME280;4599;50.906;6.786;2023-07-28T12:07:33;99450.94;;;28.23;51.57
9129;BME280;4599;50.906;6.786;2023-07-28T12:11:35;99461.13;;;27.09;54.86
9129;BME280;4599;50.906;6.786;2023-07-28T12:15:41;99458.13;;;26.33;54.30
9129;BME280;4599;50.906;6.786;2023-07-28T12:20:10;99451.59;;;25.72;56.39
9129;BME280;4599;50.906;6.786;2023-07-28T12:24:13;99460.25;;;25.49;57.04
9129;BME280;4599;50.906;6.786;2023-07-28T12:28:15;99462.41;;;25.29;58.69
9129;BME280;4599;50.906;6.786;2023-07-28T12:32:22;99461.44;;;25.12;57.56
9129;BME280;4599;50.906;6.786;2023-07-28T12:36:35;99470.03;;;24.59;58.60
9129;BME280;4599;50.906;6.786;2023-07-28T12:40:40;99468.06;;;24.25;60.32
9129;BME280;4599;50.906;6.786;2023-07-28T12:44:44;99470.06;;;23.87;61.72
9129;BME280;4599;50.906;6.786;2023-07-28T12:48:50;99470.63;;;23.89;62.71
9129;BME280;4599;50.906;6.786;2023-07-28T12:52:52;99469.16;;;24.17;62.62
9129;BME280;4599;50.906;6.786;2023-07-28T12:56:57;99478.31;;;24.26;62.69
9129;BME280;4599;50.906;6.786;2023-07-28T13:01:01;99480.03;;;24.51;60.72
9129;BME280;4599;50.906;6.786;2023-07-28T13:05:06;99483.88;;;24.48;62.05
9129;BME280;4599;50.906;6.786;2023-07-28T13:09:08;99476.72;;;24.55;62.64
9129;BME280;4599;50.906;6.786;2023-07-28T13:13:12;99479.50;;;24.60;60.77
9129;BME280;4599;50.906;6.786;2023-07-28T13:17:15;99480.13;;;24.74;59.55
9129;BME280;4599;50.906;6.786;2023-07-28T13:21:18;99477.88;;;24.59;62.20
9129;BME280;4599;50.906;6.786;2023-07-28T13:25:20;99484.09;;;24.65;66.83
9129;BME280;4599;50.906;6.786;2023-07-28T13:29:22;99485.38;;;24.26;65.65
9129;BME280;4599;50.906;6.786;2023-07-28T13:33:24;99476.72;;;24.25;65.13
9129;BME280;4599;50.906;6.786;2023-07-28T13:37:28;99467.63;;;24.76;63.34
9129;BME280;4599;50.906;6.786;2023-07-28T13:41:29;99478.53;;;25.03;61.56
9129;BME280;4599;50.906;6.786;2023-07-28T13:45:31;99476.06;;;25.19;60.84
9129;BME280;4599;50.906;6.786;2023-07-28T13:49:33;99476.88;;;26.13;59.03
9129;BME280;4599;50.906;6.786;2023-07-28T13:53:53;99477.44;;;26.66;56.38
9129;BME280;4599;50.906;6.786;2023-07-28T13:57:58;99477.03;;;26.06;56.44
9129;BME280;4599;50.906;6.786;2023-07-28T14:02:00;99477.38;;;26.21;55.94
9129;BME280;4599;50.906;6.786;2023-07-28T14:06:02;99478.06;;;25.94;56.05
9129;BME280;4599;50.906;6.786;2023-07-28T14:10:06;99479.97;;;25.29;57.49
9129;BME280;4599;50.906;6.786;2023-07-28T14:14:08;99474.69;;;25.17;59.63
9129;BME280;4599;50.906;6.786;2023-07-28T14:18:11;99458.06;;;29.72;49.79
9129;BME280;4599;50.906;6.786;2023-07-28T14:22:14;99473.72;;;28.83;47.98
9129;BME280;4599;50.906;6.786;2023-07-28T14:26:17;99462.47;;;26.39;55.38
9129;BME280;4599;50.906;6.786;2023-07-28T14:30:19;99459.22;;;25.50;56.19
9129;BME280;4599;50.906;6.786;2023-07-28T14:34:22;99458.56;;;24.90;58.30
9129;BME280;4599;50.906;6.786;2023-07-28T14:38:25;99465.78;;;25.06;58.82
9129;BME280;4599;50.906;6.786;2023-07-28T14:42:29;99468.66;;;25.16;59.27
9129;BME280;4599;50.906;6.786;2023-07-28T14:46:30;99463.28;;;25.23;59.21
9129;BME280;4599;50.906;6.786;2023-07-28T14:50:32;99456.19;;;25.00;58.47
9129;BME280;4599;50.906;6.786;2023-07-28T14:54:35;99456.31;;;24.75;60.70
9129;BME280;4599;50.906;6.786;2023-07-28T14:58:38;99463.00;;;24.42;61.56
9129;BME280;4599;50.906;6.786;2023-07-28T15:02:40;99462.16;;;24.30;63.41
9129;BME280;4599;50.906;6.786;2023-07-28T15:06:43;99464.97;;;24.10;64.02
9129;BME280;4599;50.906;6.786;2023-07-28T15:10:47;99465.50;;;23.57;66.47
9129;BME280;4599;50.906;6.786;2023-07-28T15:14:51;99464.38;;;23.71;66.27
9129;BME280;4599;50.906;6.786;2023-07-28T15:18:53;99452.78;;;23.61;66.14
9129;BME280;4599;50.906;6.786;2023-07-28T15:22:55;99443.00;;;23.93;65.66
9129;BME280;4599;50.906;6.786;2023-07-28T15:26:58;99458.41;;;24.55;63.76
9129;BME280;4599;50.906;6.786;2023-07-28T15:31:03;99463.84;;;24.72;61.43
9129;BME280;4599;50.906;6.786;2023-07-28T15:35:06;99459.56;;;24.59;62.23
9129;BME280;4599;50.906;6.786;2023-07-28T15:39:09;99453.25;;;24.49;63.08
9129;BME280;4599;50.906;6.786;2023-07-28T15:43:11;99471.53;;;24.01;63.80
9129;BME280;4599;50.906;6.786;2023-07-28T15:47:15;99478.53;;;24.25;63.66
9129;BME280;4599;50.906;6.786;2023-07-28T15:54:30;99481.78;;;24.20;64.89
9129;BME280;4599;50.906;6.786;2023-07-28T15:58:52;99482.47;;;24.09;65.66
9129;BME280;4599;50.906;6.786;2023-07-28T16:03:15;99482.94;;;24.43;63.40
9129;BME280;4599;50.906;6.786;2023-07-28T16:07:37;99476.69;;;24.44;62.81
9129;BME280;4599;50.906;6.786;2023-07-28T16:12:00;99480.25;;;24.49;63.30
9129;BME280;4599;50.906;6.786;2023-07-28T16:16:23;99494.69;;;24.40;62.42
9129;BME280;4599;50.906;6.786;2023-07-28T16:20:45;99477.59;;;24.19;63.04
9129;BME280;4599;50.906;6.786;2023-07-28T16:25:07;99492.47;;;24.01;64.07
9129;BME280;4599;50.906;6.786;2023-07-28T16:29:31;99500.78;;;23.73;65.55
9129;BME280;4599;50.906;6.786;2023-07-28T16:33:53;99481.19;;;23.57;66.83
9129;BME280;4599;50.906;6.786;2023-07-28T16:38:15;99488.94;;;23.46;68.23
9129;BME280;4599;50.906;6.786;2023-07-28T16:42:37;99480.63;;;23.55;70.39
9129;BME280;4599;50.906;6.786;2023-07-28T16:47:02;99478.63;;;23.75;68.25
9129;BME280;4599;50.906;6.786;2023-07-28T16:51:24;99466.84;;;24.03;66.84
9129;BME280;4599;50.906;6.786;2023-07-28T16:55:46;99465.88;;;24.22;65.08
9129;BME280;4599;50.906;6.786;2023-07-28T17:00:10;99462.50;;;23.97;65.22
9129;BME280;4599;50.906;6.786;2023-07-28T17:04:34;99445.41;;;23.76;65.84
9129;BME280;4599;50.906;6.786;2023-07-28T17:08:56;99452.56;;;23.44;65.96
9129;BME280;4599;50.906;6.786;2023-07-28T17:13:18;99453.28;;;23.26;66.57
9129;BME280;4599;50.906;6.786;2023-07-28T17:17:40;99455.91;;;22.95;66.68
9129;BME280;4599;50.906;6.786;2023-07-28T17:22:05;99452.56;;;23.13;66.68
9129;BME280;4599;50.906;6.786;2023-07-28T17:26:27;99457.53;;;22.90;71.41
9129;BME280;4599;50.906;6.786;2023-07-28T17:30:49;99468.22;;;22.88;69.29
9129;BME280;4599;50.906;6.786;2023-07-28T17:35:11;99452.41;;;22.76;68.98
9129;BME280;4599;50.906;6.786;2023-07-28T17:39:34;99466.81;;;22.86;68.90
9129;BME280;4599;50.906;6.786;2023-07-28T17:43:56;99472.69;;;22.81;68.71
9129;BME280;4599;50.906;6.786;2023-07-28T17:48:18;99477.53;;;22.71;69.71
9129;BME280;4599;50.906;6.786;2023-07-28T17:52:41;99482.56;;;22.72;71.21
9129;BME280;4599;50.906;6.786;2023-07-28T17:57:05;99484.19;;;22.60;71.53
9129;BME280;4599;50.906;6.786;2023-07-28T18:01:27;99478.47;;;22.39;73.72
9129;BME280;4599;50.906;6.786;2023-07-28T18:05:49;99482.53;;;22.28;73.97
9129;BME280;4599;50.906;6.786;2023-07-28T18:10:12;99473.91;;;22.14;75.35
9129;BME280;4599;50.906;6.786;2023-07-28T18:14:35;99481.22;;;21.93;76.00
9129;BME280;4599;50.906;6.786;2023-07-28T18:18:57;99484.63;;;21.73;77.35
9129;BME280;4599;50.906;6.786;2023-07-28T18:23:20;99486.03;;;21.56;77.91
9129;BME280;4599;50.906;6.786;2023-07-28T18:27:42;99475.81;;;21.35;78.51
9129;BME280;4599;50.906;6.786;2023-07-28T18:32:06;99476.41;;;21.30;78.27
9129;BME280;4599;50.906;6.786;2023-07-28T18:36:28;99479.81;;;21.18;78.90
9129;BME280;4599;50.906;6.786;2023-07-28T18:40:50;99481.59;;;21.04;79.29
9129;BME280;4599;50.906;6.786;2023-07-28T18:45:12;99488.75;;;20.96;79.50
9129;BME280;4599;50.906;6.786;2023-07-28T18:49:36;99481.34;;;20.86;80.12
9129;BME280;4599;50.906;6.786;2023-07-28T18:53:58;99477.50;;;20.75;80.38
9129;BME280;4599;50.906;6.786;2023-07-28T18:58:23;99485.13;;;20.83;80.68
9129;BME280;4599;50.906;6.786;2023-07-28T19:02:45;99477.69;;;20.74;81.12
9129;BME280;4599;50.906;6.786;2023-07-28T19:07:09;99500.97;;;20.95;80.23
9129;BME280;4599;50.906;6.786;2023-07-28T19:11:31;99496.44;;;21.10;77.96
9129;BME280;4599;50.906;6.786;2023-07-28T19:15:53;99498.66;;;21.13;78.69
9129;BME280;4599;50.906;6.786;2023-07-28T19:20:16;99499.63;;;21.12;79.04
9129;BME280;4599;50.906;6.786;2023-07-28T19:24:39;99488.63;;;21.23;77.82
9129;BME280;4599;50.906;6.786;2023-07-28T19:29:02;99488.03;;;21.34;77.13
9129;BME280;4599;50.906;6.786;2023-07-28T19:33:24;99491.25;;;21.23;77.25
9129;BME280;4599;50.906;6.786;2023-07-28T19:37:46;99494.06;;;21.42;76.35
9129;BME280;4599;50.906;6.786;2023-07-28T19:42:10;99479.41;;;21.41;75.93
9129;BME280;4599;50.906;6.786;2023-07-28T19:46:32;99485.84;;;21.51;75.42
9129;BME280;4599;50.906;6.786;2023-07-28T19:50:54;99492.06;;;21.50;75.76
9129;BME280;4599;50.906;6.786;2023-07-28T19:55:16;99480.22;;;21.41;76.53
9129;BME280;4599;50.906;6.786;2023-07-28T19:59:43;99487.81;;;21.29;76.66
9129;BME280;4599;50.906;6.786;2023-07-28T20:04:09;99497.66;;;21.21;78.69
9129;BME280;4599;50.906;6.786;2023-07-28T20:08:32;99503.56;;;20.89;80.91
9129;BME280;4599;50.906;6.786;2023-07-28T20:12:56;99512.56;;;20.79;81.45
9129;BME280;4599;50.906;6.786;2023-07-28T20:17:27;99503.94;;;20.72;82.68
9129;BME280;4599;50.906;6.786;2023-07-28T20:21:49;99503.03;;;20.46;84.74
9129;BME280;4599;50.906;6.786;2023-07-28T20:26:12;99507.44;;;20.52;85.26
9129;BME280;4599;50.906;6.786;2023-07-28T20:30:34;99514.41;;;20.45;85.23
9129;BME280;4599;50.906;6.786;2023-07-28T20:35:01;99512.56;;;20.32;85.84
9129;BME280;4599;50.906;6.786;2023-07-28T20:39:28;99506.16;;;20.34;86.17
9129;BME280;4599;50.906;6.786;2023-07-28T20:43:51;99507.09;;;20.27;86.04
9129;BME280;4599;50.906;6.786;2023-07-28T20:48:13;99511.34;;;20.28;86.49
9129;BME280;4599;50.906;6.786;2023-07-28T20:52:37;99506.38;;;20.33;85.63
9129;BME280;4599;50.906;6.786;2023-07-28T20:56:59;99514.09;;;20.26;85.64
9129;BME280;4599;50.906;6.786;2023-07-28T21:01:23;99521.13;;;20.26;86.33
9129;BME280;4599;50.906;6.786;2023-07-28T21:05:45;99518.53;;;20.26;86.27
9129;BME280;4599;50.906;6.786;2023-07-28T21:10:09;99512.91;;;20.22;86.41
9129;BME280;4599;50.906;6.786;2023-07-28T21:14:31;99508.66;;;20.15;86.11
9129;BME280;4599;50.906;6.786;2023-07-28T21:18:54;99521.00;;;20.06;87.08
9129;BME280;4599;50.906;6.786;2023-07-28T21:23:15;99521.38;;;20.03;86.92
9129;BME280;4599;50.906;6.786;2023-07-28T21:27:39;99520.69;;;19.95;86.40
9129;BME280;4599;50.906;6.786;2023-07-28T21:32:01;99521.50;;;19.95;86.82
9129;BME280;4599;50.906;6.786;2023-07-28T21:36:24;99507.94;;;20.00;86.41
9129;BME280;4599;50.906;6.786;2023-07-28T21:40:47;99524.19;;;19.80;86.93
9129;BME280;4599;50.906;6.786;2023-07-28T21:45:11;99523.34;;;19.73;87.15
9129;BME280;4599;50.906;6.786;2023-07-28T21:49:33;99524.75;;;19.69;87.32
9129;BME280;4599;50.906;6.786;2023-07-28T21:53:55;99514.34;;;19.69;87.09
9129;BME280;4599;50.906;6.786;2023-07-28T21:58:18;99513.75;;;19.46;86.94
9129;BME280;4599;50.906;6.786;2023-07-28T22:02:42;99515.41;;;19.32;86.85
9129;BME280;4599;50.906;6.786;2023-07-28T22:07:04;99517.44;;;19.16;87.32
9129;BME280;4599;50.906;6.786;2023-07-28T22:11:26;99514.84;;;19.16;87.23
9129;BME280;4599;50.906;6.786;2023-07-28T22:15:48;99506.03;;;18.96;87.28
9129;BME280;4599;50.906;6.786;2023-07-28T22:20:12;99506.75;;;18.89;87.19
9129;BME280;4599;50.906;6.786;2023-07-28T22:24:34;99488.69;;;18.81;87.48
9129;BME280;4599;50.906;6.786;2023-07-28T22:28:56;99488.63;;;18.75;87.44
9129;BME280;4599;50.906;6.786;2023-07-28T22:33:18;99485.59;;;18.71;87.71
9129;BME280;4599;50.906;6.786;2023-07-28T22:37:41;99475.50;;;18.62;88.10